sensor_id;sensor_type;location;lat;lon;timestamp;P1;durP1;ratioP1;P2;durP2;ratioP2
38909;SDS011;24676;51.360;12.354;2022-12-18T00:01:06;18.02;;;12.75;;
38909;SDS011;24676;51.360;12.354;2022-12-18T00:03:58;13.40;;;10.75;;
38909;SDS011;24676;51.360;12.354;2022-12-18T00:06:44;17.55;;;9.68;;
38909;SDS011;24676;51.360;12.354;2022-12-18T00:09:28;14.88;;;7.97;;
38909;SDS011;24676;51.360;12.354;2022-12-18T00:12:13;26.13;;;12.68;;
38909;SDS011;24676;51.360;12.354;2022-12-18T00:14:57;14.18;;;10.23;;
38909;SDS011;24676;51.360;12.354;2022-12-18T09:22:41;9.23;;;5.18;;
38909;SDS011;24676;51.360;12.354;2022-12-18T09:31:02;11.05;;;5.28;;
38909;SDS011;24676;51.360;12.354;2022-12-18T09:33:49;12.65;;;5.55;;
38909;SDS011;24676;51.360;12.354;2022-12-18T09:36:34;12.75;;;4.85;;
38909;SDS011;24676;51.360;12.354;2022-12-18T09:44:49;16.77;;;7.65;;
38909;SDS011;24676;51.360;12.354;2022-12-18T09:47:36;17.95;;;5.45;;
38909;SDS011;24676;51.360;12.354;2022-12-18T09:53:17;8.63;;;5.45;;
38909;SDS011;24676;51.360;12.354;2022-12-18T11:21:05;7.50;;;4.00;;
38909;SDS011;24676;51.360;12.354;2022-12-18T11:26:37;5.10;;;2.53;;
38909;SDS011;24676;51.360;12.354;2022-12-18T11:29:33;5.20;;;4.55;;
38909;SDS011;24676;51.360;12.354;2022-12-18T11:32:27;6.93;;;2.83;;
38909;SDS011;24676;51.360;12.354;2022-12-18T12:04:40;8.27;;;5.18;;
38909;SDS011;24676;51.360;12.354;2022-12-18T12:07:53;8.13;;;4.65;;
38909;SDS011;24676;51.360;12.354;2022-12-18T12:10:58;12.25;;;4.60;;
38909;SDS011;24676;51.360;12.354;2022-12-18T12:16:57;4.63;;;3.95;;
38909;SDS011;24676;51.360;12.354;2022-12-18T12:19:56;10.80;;;3.70;;
38909;SDS011;24676;51.360;12.354;2022-12-18T12:55:32;5.78;;;3.83;;
38909;SDS011;24676;51.360;12.354;2022-12-18T12:58:22;6.88;;;3.63;;
38909;SDS011;24676;51.360;12.354;2022-12-18T13:04:40;2.10;;;1.85;;
38909;SDS011;24676;51.360;12.354;2022-12-18T15:11:47;11.05;;;5.20;;
38909;SDS011;24676;51.360;12.354;2022-12-18T15:14:41;12.68;;;6.20;;
38909;SDS011;24676;51.360;12.354;2022-12-18T15:17:25;8.50;;;5.82;;
38909;SDS011;24676;51.360;12.354;2022-12-18T15:20:11;16.00;;;4.93;;
38909;SDS011;24676;51.360;12.354;2022-12-18T15:22:57;5.22;;;4.07;;
38909;SDS011;24676;51.360;12.354;2022-12-18T15:25:41;10.02;;;4.47;;
38909;SDS011;24676;51.360;12.354;2022-12-18T15:31:21;15.02;;;6.78;;
38909;SDS011;24676;51.360;12.354;2022-12-18T15:34:21;15.30;;;6.80;;
38909;SDS011;24676;51.360;12.354;2022-12-18T15:37:07;18.58;;;6.45;;
38909;SDS011;24676;51.360;12.354;2022-12-18T15:39:51;12.63;;;5.35;;
38909;SDS011;24676;51.360;12.354;2022-12-18T15:42:36;10.18;;;4.22;;
38909;SDS011;24676;51.360;12.354;2022-12-18T15:45:39;13.52;;;5.95;;
38909;SDS011;24676;51.360;12.354;2022-12-18T15:48:23;6.88;;;4.45;;
38909;SDS011;24676;51.360;12.354;2022-12-18T15:51:11;7.85;;;5.88;;
38909;SDS011;24676;51.360;12.354;2022-12-18T15:53:58;12.10;;;6.40;;
38909;SDS011;24676;51.360;12.354;2022-12-18T15:56:45;14.15;;;6.93;;
38909;SDS011;24676;51.360;12.354;2022-12-18T15:59:48;23.02;;;6.88;;
38909;SDS011;24676;51.360;12.354;2022-12-18T16:02:34;8.15;;;5.05;;
38909;SDS011;24676;51.360;12.354;2022-12-18T16:05:18;11.57;;;5.53;;
38909;SDS011;24676;51.360;12.354;2022-12-18T16:08:05;8.82;;;5.28;;
38909;SDS011;24676;51.360;12.354;2022-12-18T16:10:49;18.80;;;6.55;;
38909;SDS011;24676;51.360;12.354;2022-12-18T16:13:33;9.25;;;5.68;;
38909;SDS011;24676;51.360;12.354;2022-12-18T16:16:17;15.77;;;8.43;;
38909;SDS011;24676;51.360;12.354;2022-12-18T23:17:57;12.45;;;3.95;;
38909;SDS011;24676;51.360;12.354;2022-12-18T23:20:42;6.53;;;4.50;;
38909;SDS011;24676;51.360;12.354;2022-12-18T23:23:26;16.95;;;5.90;;
38909;SDS011;24676;51.360;12.354;2022-12-18T23:26:12;10.07;;;5.00;;
38909;SDS011;24676;51.360;12.354;2022-12-18T23:29:06;12.75;;;5.78;;
38909;SDS011;24676;51.360;12.354;2022-12-18T23:31:51;5.95;;;3.38;;
38909;SDS011;24676;51.360;12.354;2022-12-18T23:34:35;18.25;;;5.07;;
38909;SDS011;24676;51.360;12.354;2022-12-18T23:37:19;4.38;;;3.83;;
38909;SDS011;24676;51.360;12.354;2022-12-18T23:40:04;5.40;;;3.75;;
38909;SDS011;24676;51.360;12.354;2022-12-18T23:42:49;6.88;;;3.63;;
38909;SDS011;24676;51.360;12.354;2022-12-18T23:45:36;10.57;;;4.88;;
38909;SDS011;24676;51.360;12.354;2022-12-18T23:48:20;8.45;;;4.57;;
38909;SDS011;24676;51.360;12.354;2022-12-18T23:51:08;8.98;;;3.30;;
38909;SDS011;24676;51.360;12.354;2022-12-18T23:59:24;11.23;;;3.95;;
